Bookmark and Share
Track history (hours):
 

Nichioh Maru

Last reported at 2014-Apr-17 05:32 UTC. Time now 2014-Apr-19 00:00 UTC.
Position N 34°36' E 134°54'.

Length 170 m; draft 6.5 m.

Type: Cargo ship. MMSI: 431003232.

NotesDate/timePositionNaut miles runAvg speedWind from/ knotsBaromVisibWave heightAir tempDewpointWater temp
2014-Apr-17 05:32N 34°36' E 134°54'1111.7
2014-Apr-17 04:34N 34°36' E 135°08'6 6.2
2014-Apr-17 03:33N 34°41' E 135°13'0 0.0
2014-Apr-17 02:34N 34°41' E 135°13'0 0.0
2014-Apr-17 01:33N 34°41' E 135°13'0 0.0
2014-Apr-17 00:28N 34°41' E 135°13'1 1.4
2014-Apr-16 23:33N 34°40' E 135°15'1716.9
2014-Apr-16 22:33N 34°25' E 135°06'2120.6
2014-Apr-16 21:33N 34°05' E 134°59'175 6.5
2014-Apr-15 18:33N 34°32' E 138°28'3113.3
2014-Apr-15 16:11N 34°39' E 139°05'1214.6
2014-Apr-15 15:23N 34°48' E 139°14'1214.9
2014-Apr-15 14:33N 34°56' E 139°26'14 7.3
2014-Apr-15 12:34N 35°05' E 139°40'1312.5
2014-Apr-15 11:34N 35°16' E 139°46'1110.6
2014-Apr-15 10:34N 35°27' E 139°46'4 1.7
2014-Apr-15 08:31N 35°30' E 139°46'0 0.0
2014-Apr-15 07:31N 35°30' E 139°46'0 0.0
2014-Apr-15 06:31N 35°30' E 139°46'0 0.0
2014-Apr-15 05:31N 35°30' E 139°46'0 0.0
2014-Apr-15 03:31N 35°30' E 139°46'4 4.0
2014-Apr-15 02:34N 35°28' E 139°42'9 9.3
2014-Apr-15 01:34N 35°19' E 139°40'1 1.2
2014-Apr-15 00:33N 35°19' E 139°39'0 0.0
2014-Apr-14 23:33N 35°19' E 139°39'0 0.0
2014-Apr-14 22:33N 35°19' E 139°39'0 0.0
2014-Apr-14 21:34N 35°19' E 139°39'2 2.1
2014-Apr-14 20:31N 35°20' E 139°41'0 0.0
2014-Apr-14 19:31N 35°20' E 139°41'0 0.0
2014-Apr-14 18:31N 35°20' E 139°41'0 0.1
2014-Apr-14 17:31N 35°20' E 139°41'0 0.0
2014-Apr-14 16:31N 35°20' E 139°41'0 0.0
2014-Apr-14 15:31N 35°20' E 139°41'0 0.0
2014-Apr-14 14:31N 35°20' E 139°41'0 0.0
2014-Apr-14 13:31N 35°20' E 139°41'0 0.0
2014-Apr-14 11:31N 35°20' E 139°41'6 5.9
2014-Apr-14 10:34N 35°16' E 139°47'1615.9
2014-Apr-14 09:33N 35°01' E 139°38'238 9.1
2014-Apr-13 07:33N 34°01' E 134°59'1515.4
2014-Apr-13 06:33N 34°17' E 134°59'1514.6
2014-Apr-13 05:33N 34°28' E 135°09'1312.7
2014-Apr-13 04:33N 34°41' E 135°14'1 0.7
2014-Apr-13 03:33N 34°41' E 135°13'0 0.0
2014-Apr-13 02:33N 34°41' E 135°13'0 0.0
2014-Apr-13 01:33N 34°41' E 135°13'4 4.3
2014-Apr-13 00:33N 34°36' E 135°13'1818.2
2014-Apr-12 23:33N 34°34' E 134°51'  
2014-Apr-10 18:32N 34°33' E 134°38'1 1.2
2014-Apr-10 17:25N 34°34' E 134°39'9 4.4
2014-Apr-10 15:15N 34°35' E 134°51'811.6
2014-Apr-10 14:33N 34°38' E 134°60'1211.6
2014-Apr-10 13:33N 34°36' E 135°14'4 4.4
2014-Apr-10 12:33N 34°41' E 135°13'0 0.0
2014-Apr-10 11:21N 34°41' E 135°13'0 0.1
2014-Apr-10 10:33N 34°41' E 135°13'1211.9
2014-Apr-10 09:33N 34°29' E 135°11'2019.7
2014-Apr-10 08:33N 34°12' E 134°60'180 5.6
2014-Apr-09 00:25N 34°32' E 138°36'4314.0
2014-Apr-08 21:19N 34°54' E 139°21'1519.9
2014-Apr-08 20:33N 35°03' E 139°36'1515.4
2014-Apr-08 19:33N 35°16' E 139°45'1413.9
2014-Apr-08 18:34N 35°30' E 139°48'1 1.3
2014-Apr-08 17:32N 35°30' E 139°46'0 0.0
2014-Apr-08 16:32N 35°30' E 139°46'0 0.0
2014-Apr-08 15:32N 35°30' E 139°46'0 0.0
2014-Apr-08 14:32N 35°30' E 139°46'0 0.0
2014-Apr-08 13:32N 35°30' E 139°46'0 0.0
2014-Apr-08 12:32N 35°30' E 139°46'0 0.0
2014-Apr-08 11:32N 35°30' E 139°46'0 0.0
2014-Apr-08 10:32N 35°30' E 139°46'0 0.0
2014-Apr-08 09:32N 35°30' E 139°46'0 0.0
2014-Apr-08 08:32N 35°30' E 139°46'0 0.0
2014-Apr-08 07:32N 35°30' E 139°46'0 0.0
2014-Apr-08 06:32N 35°30' E 139°46'0 0.0
2014-Apr-08 05:32N 35°30' E 139°46'0 0.0
2014-Apr-08 04:32N 35°30' E 139°46'3 3.4
2014-Apr-08 03:33N 35°29' E 139°42'1010.1
2014-Apr-08 02:33N 35°19' E 139°41'1 1.4
2014-Apr-08 01:32N 35°19' E 139°39'0 0.0
2014-Apr-08 00:32N 35°19' E 139°39'0 0.0
2014-Apr-07 23:32N 35°19' E 139°39'0 0.0
2014-Apr-07 22:33N 35°19' E 139°39'8 8.0
2014-Apr-07 21:34N 35°14' E 139°47'1212.5
2014-Apr-07 20:33N 35°03' E 139°39'1514.6
2014-Apr-07 19:31N 34°53' E 139°26'55 9.2
2014-Apr-07 13:30N 34°25' E 138°28'  

Dump ship's entire track history

sailing weather and tide predictions

Nichioh Maru — JD3267 — position and weather